createdAt,value
2019-02-22T00:02:26.124Z,100.00
2019-02-22T00:05:01.527Z,100.00
2019-02-22T00:07:38.242Z,100.00
2019-02-22T00:10:12.278Z,100.00
2019-02-22T00:12:46.575Z,100.00
2019-02-22T00:15:23.244Z,100.00
2019-02-22T00:17:57.817Z,100.00
2019-02-22T00:20:31.598Z,100.00
2019-02-22T00:23:03.628Z,100.00
2019-02-22T00:25:35.664Z,100.00
2019-02-22T00:28:13.323Z,100.00
2019-02-22T00:30:45.160Z,100.00
2019-02-22T00:33:17.131Z,100.00
2019-02-22T00:35:57.354Z,100.00
2019-02-22T00:38:34.455Z,100.00
2019-02-22T00:41:12.840Z,100.00
2019-02-22T00:43:46.825Z,100.00
2019-02-22T00:46:25.207Z,100.00
2019-02-22T00:49:01.887Z,100.00
2019-02-22T00:51:37.947Z,100.00
2019-02-22T00:54:15.519Z,100.00
2019-02-22T00:56:50.768Z,100.00
2019-02-22T00:59:25.975Z,100.00
2019-02-22T01:01:59.822Z,100.00
2019-02-22T01:04:38.862Z,100.00
2019-02-22T01:07:21.086Z,100.00
2019-02-22T01:09:53.059Z,100.00
2019-02-22T01:12:24.931Z,100.00
2019-02-22T01:14:56.994Z,100.00
2019-02-22T01:17:31.335Z,100.00
2019-02-22T01:20:05.806Z,100.00
2019-02-22T01:22:37.726Z,100.00
2019-02-22T01:25:09.578Z,100.00
2019-02-22T01:27:43.552Z,100.00
2019-02-22T01:30:15.761Z,100.00
2019-02-22T01:32:48.232Z,100.00
2019-02-22T01:35:25.241Z,100.00
2019-02-22T01:38:14.848Z,100.00
2019-02-22T01:40:51.820Z,100.00
2019-02-22T01:43:26.400Z,100.00
2019-02-22T01:46:08.396Z,100.00
2019-02-22T01:48:45.275Z,100.00
2019-02-22T01:51:23.275Z,100.00
2019-02-22T01:54:00.561Z,100.00
2019-02-22T01:56:37.407Z,100.00
2019-02-22T01:59:13.759Z,100.00
2019-02-22T02:01:50.775Z,100.00
2019-02-22T02:04:22.822Z,100.00
2019-02-22T02:06:56.054Z,100.00
2019-02-22T02:09:29.201Z,100.00
2019-02-22T02:12:09.655Z,100.00
2019-02-22T02:14:50.363Z,100.00
2019-02-22T02:17:30.852Z,100.00
2019-02-22T02:20:09.339Z,100.00
2019-02-22T02:22:44.405Z,100.00
2019-02-22T02:25:20.141Z,100.00
2019-02-22T02:27:54.524Z,100.00
2019-02-22T02:30:26.747Z,100.00
2019-02-22T02:33:01.031Z,100.00
2019-02-22T02:35:33.003Z,100.00
2019-02-22T02:38:16.933Z,100.00
2019-02-22T02:41:08.064Z,100.00
2019-02-22T02:43:41.310Z,100.00
2019-02-22T02:46:15.044Z,100.00
2019-02-22T02:48:49.514Z,100.00
2019-02-22T02:51:23.162Z,100.00
2019-02-22T02:53:55.241Z,100.00
2019-02-22T02:56:28.799Z,100.00
2019-02-22T02:59:03.143Z,100.00
2019-02-22T03:01:39.595Z,100.00
2019-02-22T03:04:11.516Z,100.00
2019-02-22T03:06:54.643Z,100.00
2019-02-22T03:09:28.999Z,100.00
2019-02-22T03:12:00.845Z,100.00
2019-02-22T03:14:34.326Z,100.00
2019-02-22T03:17:10.539Z,100.00
2019-02-22T03:19:47.028Z,100.00
2019-02-22T03:22:19.882Z,100.00
2019-02-22T03:24:55.054Z,100.00
2019-02-22T03:27:33.058Z,100.00
2019-02-22T03:30:15.896Z,100.00
2019-02-22T03:32:45.273Z,100.00
2019-02-22T03:35:24.483Z,100.00
2019-02-22T03:38:07.771Z,100.00
2019-02-22T03:40:44.991Z,100.00
2019-02-22T03:43:23.000Z,100.00
2019-02-22T03:45:58.744Z,100.00
2019-02-22T03:48:33.814Z,100.00
2019-02-22T03:51:05.946Z,100.00
2019-02-22T03:53:53.011Z,100.00
2019-02-22T03:56:27.893Z,100.00
2019-02-22T03:59:00.167Z,100.00
2019-02-22T04:01:35.056Z,100.00
2019-02-22T04:04:11.674Z,100.00
2019-02-22T04:06:43.953Z,99.71
2019-02-22T04:09:26.353Z,99.92
2019-02-22T04:12:01.457Z,100.00
2019-02-22T04:14:34.679Z,100.00
2019-02-22T04:17:07.996Z,99.97
2019-02-22T04:19:43.253Z,99.96
2019-02-22T04:22:16.403Z,99.26
2019-02-22T04:24:52.249Z,98.47
2019-02-22T04:27:28.313Z,98.40
2019-02-22T04:30:02.167Z,98.65
2019-02-22T04:32:38.777Z,98.56
2019-02-22T04:35:20.485Z,98.75
2019-02-22T04:38:14.626Z,98.13
2019-02-22T04:40:54.409Z,98.10
2019-02-22T04:43:33.542Z,98.68
2019-02-22T04:46:08.039Z,97.30
2019-02-22T04:48:39.905Z,97.84
2019-02-22T04:51:11.728Z,97.55
2019-02-22T04:53:43.618Z,97.20
2019-02-22T04:56:15.532Z,96.86
2019-02-22T04:58:47.406Z,96.43
2019-02-22T05:01:20.818Z,96.27
2019-02-22T05:03:52.695Z,96.58
2019-02-22T05:06:24.534Z,95.86
2019-02-22T05:08:56.422Z,95.69
2019-02-22T05:11:28.390Z,96.13
2019-02-22T05:14:00.410Z,94.99
2019-02-22T05:16:32.280Z,94.24
2019-02-22T05:19:04.174Z,94.06
2019-02-22T05:21:36.001Z,94.14
2019-02-22T05:24:07.921Z,95.23
2019-02-22T05:26:39.805Z,96.11
2019-02-22T05:29:11.598Z,95.94
2019-02-22T05:31:43.626Z,96.23
2019-02-22T05:34:15.497Z,96.28
2019-02-22T05:36:47.370Z,96.43
2019-02-22T05:39:19.684Z,96.18
2019-02-22T05:41:51.702Z,96.23
2019-02-22T05:44:23.549Z,95.98
2019-02-22T05:47:00.417Z,95.59
2019-02-22T05:49:28.850Z,96.05
2019-02-22T05:52:00.690Z,96.48
2019-02-22T05:54:32.650Z,97.32
2019-02-22T05:57:04.447Z,98.22
2019-02-22T05:59:36.356Z,98.84
2019-02-22T06:02:09.302Z,99.23
2019-02-22T06:04:41.361Z,100.00
2019-02-22T06:07:14.564Z,100.00
2019-02-22T06:09:46.710Z,98.35
2019-02-22T06:12:19.349Z,97.99
2019-02-22T06:14:51.626Z,97.62
2019-02-22T06:17:23.568Z,97.95
2019-02-22T06:19:55.551Z,98.17
2019-02-22T06:22:29.934Z,98.29
2019-02-22T06:25:01.071Z,98.12
2019-02-22T06:27:33.056Z,98.31
2019-02-22T06:30:05.728Z,98.59
2019-02-22T06:32:37.882Z,99.19
2019-02-22T06:35:09.940Z,98.45
2019-02-22T06:37:41.922Z,97.76
2019-02-22T06:40:13.966Z,98.09
2019-02-22T06:42:46.360Z,98.25
2019-02-22T06:45:18.396Z,97.48
2019-02-22T06:47:50.383Z,97.34
2019-02-22T06:50:33.163Z,97.45
2019-02-22T06:52:56.050Z,98.14
2019-02-22T06:55:27.996Z,97.79
2019-02-22T06:58:00.094Z,98.31
2019-02-22T07:00:32.023Z,97.51
2019-02-22T07:03:04.008Z,97.06
2019-02-22T07:05:36.033Z,96.72
2019-02-22T07:08:08.003Z,96.18
2019-02-22T07:11:11.176Z,95.96
2019-02-22T07:13:43.268Z,95.82
2019-02-22T07:16:15.357Z,94.58
2019-02-22T07:18:49.879Z,94.05
2019-02-22T07:21:21.257Z,93.92
2019-02-22T07:23:53.290Z,94.09
2019-02-22T07:26:25.248Z,93.74
2019-02-22T07:28:57.305Z,93.48
2019-02-22T07:31:29.355Z,92.77
2019-02-22T07:34:01.315Z,92.16
2019-02-22T07:36:33.516Z,92.12
2019-02-22T07:39:06.830Z,92.55
2019-02-22T07:41:40.932Z,92.63
2019-02-22T07:44:12.706Z,92.94
2019-02-22T07:46:44.714Z,93.59
2019-02-22T07:49:25.217Z,94.11
2019-02-22T07:51:57.102Z,94.61
2019-02-22T07:54:29.141Z,95.28
2019-02-22T07:57:01.147Z,95.26
2019-02-22T07:59:33.208Z,95.21
2019-02-22T08:02:05.118Z,95.46
2019-02-22T08:04:37.148Z,95.96
2019-02-22T08:07:09.054Z,96.40
2019-02-22T08:09:41.023Z,96.14
2019-02-22T08:12:12.966Z,96.30
2019-02-22T08:14:44.965Z,96.09
2019-02-22T08:17:16.940Z,96.37
2019-02-22T08:19:49.009Z,96.64
2019-02-22T08:22:21.275Z,96.64
2019-02-22T08:24:53.256Z,96.19
2019-02-22T08:27:25.226Z,95.48
2019-02-22T08:29:57.314Z,95.55
2019-02-22T08:32:29.321Z,95.18
2019-02-22T08:35:01.356Z,94.00
2019-02-22T08:37:33.315Z,94.08
2019-02-22T08:40:05.733Z,93.81
2019-02-22T08:42:37.788Z,92.67
2019-02-22T08:45:10.182Z,91.98
2019-02-22T08:47:42.347Z,90.03
2019-02-22T08:50:14.573Z,89.56
2019-02-22T08:52:47.065Z,87.91
2019-02-22T08:55:19.081Z,87.62
2019-02-22T08:57:51.172Z,87.68
2019-02-22T09:00:23.255Z,87.93
2019-02-22T09:02:55.251Z,88.15
2019-02-22T09:05:27.216Z,88.10
2019-02-22T09:07:59.271Z,87.49
2019-02-22T09:10:31.383Z,87.43
2019-02-22T09:13:03.447Z,86.48
2019-02-22T09:15:35.419Z,85.61
2019-02-22T09:18:07.411Z,85.00
2019-02-22T09:20:39.374Z,84.40
2019-02-22T09:23:11.454Z,84.05
2019-02-22T09:25:43.559Z,83.99
2019-02-22T09:28:15.636Z,83.21
2019-02-22T09:30:48.676Z,82.95
2019-02-22T09:33:20.747Z,82.97
2019-02-22T09:35:53.009Z,82.75
2019-02-22T09:38:25.124Z,82.60
2019-02-22T09:40:57.740Z,82.74
2019-02-22T09:43:29.820Z,82.37
2019-02-22T09:46:05.290Z,82.37
2019-02-22T09:48:37.208Z,82.84
2019-02-22T09:51:09.303Z,82.77
2019-02-22T09:53:41.219Z,82.86
2019-02-22T09:56:13.450Z,82.63
2019-02-22T09:58:45.554Z,82.66
2019-02-22T10:01:22.783Z,83.32
2019-02-22T10:03:57.629Z,83.47
2019-02-22T10:07:05.856Z,83.54
2019-02-22T10:09:37.768Z,83.05
2019-02-22T10:12:09.640Z,82.77
2019-02-22T10:14:41.570Z,82.23
2019-02-22T10:17:13.499Z,82.09
2019-02-22T10:19:45.534Z,81.30
2019-02-22T10:22:17.495Z,79.82
2019-02-22T10:24:49.538Z,79.38
2019-02-22T10:27:21.446Z,78.05
2019-02-22T10:30:03.013Z,77.30
2019-02-22T10:32:36.453Z,74.78
2019-02-22T10:35:08.902Z,73.82
2019-02-22T10:37:40.902Z,73.50
2019-02-22T10:40:14.064Z,74.15
2019-02-22T10:42:46.034Z,73.21
2019-02-22T10:45:18.079Z,71.77
2019-02-22T10:47:49.945Z,72.52
2019-02-22T10:50:21.848Z,70.91
2019-02-22T10:53:01.703Z,71.06
2019-02-22T10:55:27.412Z,71.01
2019-02-22T10:58:04.411Z,70.62
2019-02-22T11:00:37.963Z,69.26
2019-02-22T11:03:09.799Z,66.56
2019-02-22T11:05:41.672Z,63.48
2019-02-22T11:08:13.570Z,64.23
2019-02-22T11:10:45.386Z,65.19
2019-02-22T11:13:17.255Z,62.21
2019-02-22T11:15:49.102Z,60.54
2019-02-22T11:18:21.080Z,63.23
2019-02-22T11:20:52.912Z,66.32
2019-02-22T11:23:24.785Z,67.79
2019-02-22T11:25:56.724Z,68.40
2019-02-22T11:28:28.600Z,68.08
2019-02-22T11:31:00.560Z,66.54
2019-02-22T11:33:32.542Z,66.28
2019-02-22T11:36:04.426Z,65.07
2019-02-22T11:38:36.411Z,63.46
2019-02-22T11:41:08.340Z,63.30
2019-02-22T11:43:40.238Z,64.29
2019-02-22T11:46:12.102Z,65.13
2019-02-22T11:48:43.920Z,66.00
2019-02-22T11:51:15.796Z,65.31
2019-02-22T11:53:47.701Z,62.59
2019-02-22T11:56:19.565Z,62.94
2019-02-22T11:58:51.520Z,62.87
2019-02-22T12:01:23.447Z,61.50
2019-02-22T12:03:55.439Z,62.51
2019-02-22T12:06:27.414Z,61.30
2019-02-22T12:08:59.333Z,58.70
2019-02-22T12:11:31.193Z,58.68
2019-02-22T12:14:03.158Z,59.26
2019-02-22T12:16:35.078Z,59.24
2019-02-22T12:19:06.934Z,56.99
2019-02-22T12:21:38.773Z,58.66
2019-02-22T12:24:10.749Z,58.57
2019-02-22T12:26:42.594Z,59.31
2019-02-22T12:29:14.481Z,58.46
2019-02-22T12:31:46.358Z,58.30
2019-02-22T12:34:18.264Z,56.87
2019-02-22T12:36:50.191Z,57.71
2019-02-22T12:39:22.181Z,56.23
2019-02-22T12:41:54.068Z,56.17
2019-02-22T12:44:26.102Z,55.96
2019-02-22T12:46:59.189Z,56.04
2019-02-22T12:49:31.062Z,55.32
2019-02-22T12:52:02.995Z,55.27
2019-02-22T12:54:34.905Z,55.87
2019-02-22T12:57:06.727Z,55.90
2019-02-22T12:59:38.681Z,55.36
2019-02-22T13:02:10.525Z,55.77
2019-02-22T13:04:47.221Z,55.51
2019-02-22T13:07:21.644Z,55.66
2019-02-22T13:09:53.625Z,55.28
2019-02-22T13:12:26.835Z,55.29
2019-02-22T13:15:13.638Z,55.11
2019-02-22T13:17:33.802Z,53.38
2019-02-22T13:20:05.989Z,53.67
2019-02-22T13:22:41.833Z,54.98
2019-02-22T13:25:16.714Z,54.77
2019-02-22T13:27:48.659Z,52.87
2019-02-22T13:30:20.544Z,52.76
2019-02-22T13:32:52.473Z,51.63
2019-02-22T13:35:27.166Z,51.68
2019-02-22T13:37:59.112Z,50.60
2019-02-22T13:40:31.738Z,52.10
2019-02-22T13:43:05.365Z,50.51
2019-02-22T13:45:37.415Z,50.51
2019-02-22T13:48:09.347Z,49.91
2019-02-22T13:50:42.993Z,49.62
2019-02-22T13:53:15.985Z,49.00
2019-02-22T13:55:49.994Z,48.45
2019-02-22T13:58:47.073Z,48.40
2019-02-22T14:01:19.373Z,48.61
2019-02-22T14:03:52.577Z,48.28
2019-02-22T14:06:24.606Z,48.14
2019-02-22T14:08:56.471Z,48.01
2019-02-22T14:11:30.406Z,45.69
2019-02-22T14:14:02.282Z,46.95
2019-02-22T14:16:35.196Z,46.97
2019-02-22T14:19:07.030Z,47.84
2019-02-22T14:21:39.026Z,48.53
2019-02-22T14:24:10.941Z,48.37
2019-02-22T14:26:42.891Z,49.21
2019-02-22T14:29:14.849Z,49.39
2019-02-22T14:31:47.035Z,49.55
2019-02-22T14:34:19.046Z,49.36
2019-02-22T14:36:50.904Z,48.88
2019-02-22T14:39:22.814Z,50.10
2019-02-22T14:41:54.739Z,48.19
2019-02-22T14:44:26.628Z,47.69
2019-02-22T14:46:58.469Z,46.52
2019-02-22T14:49:30.339Z,46.89
2019-02-22T14:52:02.267Z,47.39
2019-02-22T14:54:34.127Z,48.68
2019-02-22T14:57:06.106Z,49.42
2019-02-22T14:59:37.983Z,48.69
2019-02-22T15:02:12.876Z,48.50
2019-02-22T15:04:44.936Z,48.10
2019-02-22T15:07:16.914Z,47.61
2019-02-22T15:09:49.084Z,47.57
2019-02-22T15:12:21.051Z,46.86
2019-02-22T15:14:52.996Z,47.10
2019-02-22T15:17:42.348Z,47.23
2019-02-22T15:20:14.413Z,47.42
2019-02-22T15:22:46.304Z,47.30
2019-02-22T15:25:18.458Z,47.72
2019-02-22T15:27:50.316Z,48.32
2019-02-22T15:30:23.434Z,49.14
2019-02-22T15:32:55.401Z,48.16
2019-02-22T15:35:27.385Z,48.68
2019-02-22T15:37:59.390Z,48.76
2019-02-22T15:40:31.232Z,48.82
2019-02-22T15:43:03.227Z,48.94
2019-02-22T15:45:35.162Z,49.80
2019-02-22T15:48:07.288Z,49.70
2019-02-22T15:50:39.160Z,49.56
2019-02-22T15:53:11.166Z,48.73
2019-02-22T15:55:43.112Z,48.70
2019-02-22T15:58:15.128Z,48.81
2019-02-22T16:00:46.945Z,49.63
2019-02-22T16:03:18.896Z,50.26
2019-02-22T16:05:50.824Z,50.22
2019-02-22T16:08:22.698Z,49.65
2019-02-22T16:10:54.675Z,49.72
2019-02-22T16:13:26.700Z,50.30
2019-02-22T16:15:58.566Z,51.18
2019-02-22T16:18:30.432Z,51.94
2019-02-22T16:21:02.314Z,51.54
2019-02-22T16:23:34.166Z,51.24
2019-02-22T16:26:06.032Z,52.23
2019-02-22T16:28:37.870Z,52.49
2019-02-22T16:31:10.137Z,52.81
2019-02-22T16:33:42.048Z,53.11
2019-02-22T16:36:13.867Z,53.13
2019-02-22T16:38:45.836Z,53.25
2019-02-22T16:41:17.766Z,53.74
2019-02-22T16:43:49.610Z,53.57
2019-02-22T16:46:21.542Z,53.28
2019-02-22T16:48:53.349Z,53.28
2019-02-22T16:51:25.373Z,53.59
2019-02-22T16:53:57.263Z,53.32
2019-02-22T16:56:29.435Z,53.75
2019-02-22T16:59:01.293Z,53.66
2019-02-22T17:01:33.157Z,54.34
2019-02-22T17:04:09.526Z,54.59
2019-02-22T17:06:41.395Z,54.46
2019-02-22T17:09:13.449Z,54.27
2019-02-22T17:11:45.231Z,55.09
2019-02-22T17:14:17.175Z,55.57
2019-02-22T17:16:49.191Z,55.84
2019-02-22T17:19:24.245Z,56.41
2019-02-22T17:21:56.509Z,57.02
2019-02-22T17:24:30.723Z,57.65
2019-02-22T17:27:02.772Z,57.94
2019-02-22T17:29:35.803Z,58.31
2019-02-22T17:32:07.896Z,57.83
2019-02-22T17:34:39.893Z,58.16
2019-02-22T17:37:11.922Z,58.94
2019-02-22T17:39:46.687Z,59.47
2019-02-22T17:42:22.073Z,59.12
2019-02-22T17:44:56.731Z,59.36
2019-02-22T17:47:56.498Z,59.13
2019-02-22T17:51:08.859Z,59.24
2019-02-22T17:54:24.635Z,59.18
2019-02-22T17:56:56.947Z,59.97
2019-02-22T17:59:31.122Z,59.81
2019-02-22T18:02:03.439Z,59.88
2019-02-22T18:04:35.376Z,60.21
2019-02-22T18:07:07.231Z,60.30
2019-02-22T18:09:39.267Z,60.96
2019-02-22T18:12:11.320Z,60.90
2019-02-22T18:14:48.483Z,61.53
2019-02-22T18:17:50.714Z,61.51
2019-02-22T18:20:37.586Z,61.94
2019-02-22T18:23:13.739Z,61.25
2019-02-22T18:25:46.141Z,62.23
2019-02-22T18:28:21.481Z,62.91
2019-02-22T18:30:57.040Z,61.96
2019-02-22T18:33:30.569Z,61.92
2019-02-22T18:36:02.875Z,61.92
2019-02-22T18:38:34.884Z,61.32
2019-02-22T18:41:07.123Z,60.90
2019-02-22T18:43:39.168Z,61.68
2019-02-22T18:46:11.255Z,61.87
2019-02-22T18:48:43.564Z,60.78
2019-02-22T18:51:42.049Z,60.94
2019-02-22T18:53:55.656Z,61.18
2019-02-22T18:56:27.891Z,61.35
2019-02-22T18:58:59.966Z,61.02
2019-02-22T19:01:32.028Z,59.87
2019-02-22T19:04:04.176Z,60.30
2019-02-22T19:06:36.164Z,59.52
2019-02-22T19:09:08.454Z,60.18
2019-02-22T19:11:41.074Z,60.70
2019-02-22T19:14:13.370Z,61.10
2019-02-22T19:16:59.904Z,59.65
2019-02-22T19:19:55.516Z,60.31
2019-02-22T19:22:18.918Z,60.91
2019-02-22T19:24:55.334Z,61.68
2019-02-22T19:27:29.924Z,60.82
2019-02-22T19:30:03.360Z,61.12
2019-02-22T19:33:29.712Z,61.65
2019-02-22T19:36:01.800Z,61.27
2019-02-22T19:38:38.158Z,61.95
2019-02-22T19:41:12.175Z,59.97
2019-02-22T19:43:44.922Z,60.76
2019-02-22T19:46:19.728Z,62.17
2019-02-22T19:48:51.800Z,62.54
2019-02-22T19:51:29.571Z,62.44
2019-02-22T19:54:02.686Z,62.47
2019-02-22T19:56:43.827Z,62.69
2019-02-22T19:59:16.151Z,62.79
2019-02-22T20:02:02.598Z,63.03
2019-02-22T20:04:40.875Z,63.56
2019-02-22T20:07:14.870Z,63.02
2019-02-22T20:09:49.250Z,62.53
2019-02-22T20:12:23.430Z,63.26
2019-02-22T20:14:56.958Z,62.66
2019-02-22T20:17:40.280Z,62.16
2019-02-22T21:08:01.250Z,63.58
2019-02-22T21:10:33.352Z,64.63
2019-02-22T21:13:05.473Z,64.67
2019-02-22T21:15:37.578Z,64.72
2019-02-22T21:18:16.351Z,64.94
2019-02-22T21:20:43.387Z,64.54
2019-02-22T21:23:15.412Z,63.85
2019-02-22T21:25:47.413Z,64.50
2019-02-22T21:28:19.326Z,64.66
2019-02-22T21:30:51.192Z,63.63
2019-02-22T21:33:23.051Z,63.73
2019-02-22T21:35:54.971Z,63.21
2019-02-22T21:38:26.943Z,63.43
2019-02-22T21:40:58.773Z,63.58
2019-02-22T21:43:31.933Z,64.53
2019-02-22T21:46:03.739Z,65.49
2019-02-22T21:48:35.588Z,65.72
2019-02-22T21:51:07.727Z,65.42
2019-02-22T21:53:39.682Z,65.80
2019-02-22T21:56:11.562Z,65.97
2019-02-22T21:58:43.451Z,65.87
2019-02-22T22:01:15.304Z,65.72
2019-02-22T22:03:47.307Z,65.96
2019-02-22T22:06:19.253Z,65.94
2019-02-22T22:08:51.282Z,65.69
2019-02-22T22:11:23.214Z,65.83
2019-02-22T22:13:55.113Z,65.82
2019-02-22T22:16:26.961Z,65.98
2019-02-22T22:18:58.903Z,66.78
2019-02-22T22:21:30.735Z,66.34
2019-02-22T22:24:02.666Z,67.11
2019-02-22T22:26:34.540Z,67.54
2019-02-22T22:29:06.515Z,67.76
2019-02-22T22:31:38.362Z,67.53
2019-02-22T22:34:10.273Z,68.24
2019-02-22T22:36:42.173Z,68.25
2019-02-22T22:39:14.235Z,68.90
2019-02-22T22:41:46.113Z,68.37
2019-02-22T22:44:17.981Z,68.71
2019-02-22T22:46:50.040Z,68.21
2019-02-22T22:49:22.058Z,67.89
2019-02-22T22:51:53.947Z,67.92
2019-02-22T22:54:25.823Z,68.27
2019-02-22T22:56:58.722Z,68.42
2019-02-22T22:59:30.664Z,67.65
2019-02-22T23:02:02.831Z,67.18
2019-02-22T23:04:34.895Z,67.24
2019-02-22T23:07:06.828Z,67.04
2019-02-22T23:09:38.774Z,66.60
2019-02-22T23:12:10.693Z,67.17
2019-02-22T23:14:42.561Z,67.78
2019-02-22T23:17:14.477Z,67.03
2019-02-22T23:19:46.356Z,67.13
2019-02-22T23:22:18.198Z,66.57
2019-02-22T23:24:50.067Z,67.93
2019-02-22T23:27:22.032Z,68.51
2019-02-22T23:29:53.976Z,68.49
2019-02-22T23:32:25.778Z,69.10
2019-02-22T23:34:57.748Z,69.69
2019-02-22T23:37:29.649Z,70.44
2019-02-22T23:40:01.493Z,70.48
2019-02-22T23:42:33.428Z,70.73
2019-02-22T23:45:05.528Z,71.22
2019-02-22T23:47:37.458Z,71.17
2019-02-22T23:50:09.379Z,70.88
2019-02-22T23:52:41.301Z,71.29
2019-02-22T23:55:13.164Z,71.64
2019-02-22T23:57:44.995Z,72.20
